Time;durP1;ratioP1;P1;durP2;ratioP2;P2;SDS_P1;SDS_P2;PMS_P1;PMS_P2;Temp;Humidity;BMP_temperature;BMP_pressure;BME280_temperature;BME280_humidity;BME280_pressure;Samples;Min_cycle;Max_cycle;Signal;HPM_P1;HPM_P2
2023/01/23 00:01:48;;;;;;;48.70;21.42;;;1.90;99.90;;;;;;5033214;28;20115;-61
2023/01/23 00:04:14;;;;;;;42.92;21.10;;;1.90;99.90;;;;;;5031806;28;20030;-59
2023/01/23 00:06:39;;;;;;;35.80;20.27;;;2.00;99.90;;;;;;5033349;28;20469;-61
2023/01/23 00:09:06;;;;;;;43.25;20.58;;;1.90;99.90;;;;;;5033881;28;20025;-60
2023/01/23 00:11:32;;;;;;;46.08;20.67;;;1.90;99.90;;;;;;5034892;28;20021;-59
2023/01/23 00:13:59;;;;;;;50.28;22.33;;;1.90;99.90;;;;;;5033221;28;20057;-60
2023/01/23 00:16:27;;;;;;;43.22;21.85;;;1.90;99.90;;;;;;5033041;28;20570;-59
2023/01/23 00:18:52;;;;;;;47.25;20.80;;;1.90;99.90;;;;;;5032163;28;20073;-58
2023/01/23 00:21:21;;;;;;;46.78;20.48;;;1.90;99.90;;;;;;5032760;28;20110;-61
2023/01/23 00:23:50;;;;;;;47.97;21.33;;;1.90;99.90;;;;;;5030800;28;20503;-58
2023/01/23 00:26:18;;;;;;;50.55;22.55;;;1.90;99.90;;;;;;5032257;28;20116;-59
2023/01/23 00:28:45;;;;;;;46.13;22.25;;;1.90;99.90;;;;;;5032533;28;20022;-62
2023/01/23 00:31:17;;;;;;;54.20;20.95;;;1.90;99.90;;;;;;5031964;28;20036;-60
2023/01/23 00:33:43;;;;;;;51.90;22.40;;;2.10;99.90;;;;;;5030818;28;20037;-60
2023/01/23 00:36:10;;;;;;;50.17;21.85;;;2.00;99.90;;;;;;5031978;28;20025;-61
2023/01/23 00:38:36;;;;;;;44.15;20.20;;;2.00;99.90;;;;;;5031695;28;20052;-62
2023/01/23 00:41:02;;;;;;;45.40;20.60;;;2.00;99.90;;;;;;5032077;28;20053;-58
2023/01/23 00:43:29;;;;;;;40.67;19.77;;;1.90;99.90;;;;;;5013599;28;20025;-59
2023/01/23 00:45:55;;;;;;;47.30;21.08;;;2.20;99.90;;;;;;5031727;28;20029;-62
2023/01/23 00:48:20;;;;;;;46.95;20.20;;;1.90;99.90;;;;;;5031732;28;20512;-59
2023/01/23 00:50:46;;;;;;;46.60;20.83;;;1.90;99.90;;;;;;5031584;28;20393;-60
2023/01/23 00:53:12;;;;;;;46.03;20.45;;;2.10;99.90;;;;;;5030932;28;20113;-62
2023/01/23 00:55:39;;;;;;;41.45;20.80;;;1.90;99.90;;;;;;5031604;28;20065;-62
2023/01/23 00:58:04;;;;;;;48.15;22.52;;;1.90;99.90;;;;;;5031762;28;20022;-61
2023/01/23 01:00:30;;;;;;;56.75;22.23;;;1.90;99.90;;;;;;5031747;28;20366;-60
2023/01/23 01:02:56;;;;;;;49.72;21.88;;;1.90;99.90;;;;;;5030751;28;20032;-58
2023/01/23 01:05:21;;;;;;;54.45;22.08;;;1.90;99.90;;;;;;5030544;28;20048;-62
2023/01/23 01:07:47;;;;;;;47.78;21.35;;;1.90;99.90;;;;;;5031201;28;20033;-60
2023/01/23 01:10:14;;;;;;;54.05;23.05;;;1.90;99.90;;;;;;5031611;28;20027;-60
2023/01/23 01:12:39;;;;;;;50.53;21.27;;;2.00;99.90;;;;;;5030350;28;20040;-61
2023/01/23 01:15:07;;;;;;;55.88;23.05;;;1.90;99.90;;;;;;5031390;28;20120;-58
2023/01/23 01:17:32;;;;;;;54.08;22.80;;;1.90;99.90;;;;;;5031482;28;20025;-65
2023/01/23 01:19:58;;;;;;;45.40;21.60;;;2.00;99.90;;;;;;5030839;28;20087;-63
2023/01/23 01:22:23;;;;;;;50.35;21.33;;;2.00;99.90;;;;;;5030609;28;20041;-58
2023/01/23 01:24:49;;;;;;;49.13;20.60;;;2.00;99.90;;;;;;5031143;28;20113;-59
2023/01/23 01:27:15;;;;;;;52.63;22.73;;;2.20;99.90;;;;;;5031066;28;20124;-61
2023/01/23 01:29:40;;;;;;;46.60;21.10;;;2.00;99.90;;;;;;5031369;28;20025;-62
2023/01/23 01:32:06;;;;;;;51.03;22.13;;;2.00;99.90;;;;;;5013570;28;20022;-65
2023/01/23 01:34:32;;;;;;;50.30;21.98;;;2.00;99.90;;;;;;5031179;28;20087;-62
2023/01/23 01:36:57;;;;;;;48.17;21.52;;;2.60;99.90;;;;;;5031948;28;20099;-59
2023/01/23 01:39:23;;;;;;;49.75;23.45;;;2.00;99.90;;;;;;5032121;28;20028;-62
2023/01/23 01:41:48;;;;;;;53.70;21.50;;;2.00;99.90;;;;;;5031402;28;20452;-59
2023/01/23 01:44:20;;;;;;;47.50;21.33;;;2.00;99.90;;;;;;5030500;28;20084;-61
2023/01/23 01:46:45;;;;;;;55.40;22.65;;;2.00;99.90;;;;;;5031571;28;20125;-62
2023/01/23 01:49:18;;;;;;;55.05;22.55;;;2.00;99.90;;;;;;5031361;28;20061;-61
2023/01/23 01:51:55;;;;;;;52.85;22.08;;;2.00;99.90;;;;;;5031240;28;20029;-59
2023/01/23 01:54:56;;;;;;;56.03;22.17;;;2.00;99.90;;;;;;5030019;28;20053;-60
2023/01/23 01:57:29;;;;;;;53.08;21.42;;;2.00;99.90;;;;;;5020292;28;20030;-63
2023/01/23 02:00:09;;;;;;;54.45;22.23;;;2.00;99.90;;;;;;5030925;28;20022;-58
2023/01/23 02:02:42;;;;;;;50.83;21.95;;;2.00;99.90;;;;;;5030152;28;20036;-63
2023/01/23 02:05:27;;;;;;;56.65;22.15;;;2.00;99.90;;;;;;5031028;28;20053;-62
2023/01/23 02:07:58;;;;;;;57.67;22.73;;;2.00;99.90;;;;;;5030538;28;20025;-64
2023/01/23 02:10:24;;;;;;;63.95;24.02;;;1.90;99.90;;;;;;5030569;28;20033;-61
2023/01/23 02:12:52;;;;;;;51.58;23.70;;;1.90;99.90;;;;;;5030336;28;20029;-59
2023/01/23 02:15:20;;;;;;;50.42;22.17;;;2.00;99.90;;;;;;5030874;28;20026;-62
2023/01/23 02:17:48;;;;;;;56.58;22.95;;;2.30;99.90;;;;;;5034668;28;20029;-59
2023/01/23 02:20:20;;;;;;;50.25;21.25;;;1.90;99.90;;;;;;5034513;28;20026;-60
2023/01/23 02:23:20;;;;;;;56.30;22.05;;;2.00;99.90;;;;;;5033436;28;20029;-61
2023/01/23 02:25:50;;;;;;;52.92;22.33;;;1.90;99.90;;;;;;5080034;22;20037;-60
2023/01/23 02:28:16;;;;;;;47.22;20.75;;;1.90;99.90;;;;;;5054222;28;20488;-61
2023/01/23 02:30:46;;;;;;;52.60;22.92;;;1.90;99.90;;;;;;5069068;28;20029;-62
2023/01/23 02:33:18;;;;;;;50.13;22.17;;;2.00;99.90;;;;;;5064086;28;20021;-61
2023/01/23 02:35:43;;;;;;;59.63;23.23;;;1.90;99.90;;;;;;5068095;28;20365;-61
2023/01/23 02:38:09;;;;;;;52.17;21.40;;;2.00;99.90;;;;;;5074346;28;20476;-62
2023/01/23 02:40:37;;;;;;;46.83;22.33;;;2.00;99.90;;;;;;5074376;28;20469;-60
2023/01/23 02:43:09;;;;;;;53.83;23.05;;;1.90;99.90;;;;;;5072815;28;20032;-60
2023/01/23 02:45:35;;;;;;;60.55;22.90;;;1.90;99.90;;;;;;5074070;28;20100;-59
2023/01/23 02:48:01;;;;;;;54.05;21.30;;;1.90;99.90;;;;;;5074092;28;20036;-61
2023/01/23 02:50:28;;;;;;;46.10;22.58;;;1.90;99.90;;;;;;5074085;28;20543;-61
2023/01/23 02:52:54;;;;;;;60.75;22.70;;;1.90;99.90;;;;;;5073197;28;20036;-61
2023/01/23 02:55:20;;;;;;;50.42;22.20;;;1.90;99.90;;;;;;5073756;28;20388;-62
2023/01/23 02:57:46;;;;;;;57.72;21.77;;;1.90;99.90;;;;;;5073711;28;20029;-59
2023/01/23 03:00:16;;;;;;;53.00;22.10;;;1.90;99.90;;;;;;5073859;28;20093;-63
2023/01/23 03:02:42;;;;;;;58.47;22.75;;;1.90;99.90;;;;;;5073184;28;20048;-61
2023/01/23 03:05:08;;;;;;;58.88;23.77;;;1.90;99.90;;;;;;5073817;28;20074;-62
2023/01/23 03:07:34;;;;;;;55.28;22.95;;;2.00;99.90;;;;;;5073884;28;20097;-60
2023/01/23 03:10:01;;;;;;;60.72;23.15;;;2.00;99.90;;;;;;5073748;28;20060;-60
2023/01/23 03:12:27;;;;;;;46.80;21.63;;;2.00;99.90;;;;;;5072781;28;20028;-62
2023/01/23 03:14:53;;;;;;;57.88;23.58;;;2.00;99.90;;;;;;5066762;28;20044;-61
2023/01/23 03:17:20;;;;;;;59.45;22.80;;;2.00;99.90;;;;;;5073696;28;20048;-62
2023/01/23 03:19:46;;;;;;;54.08;23.25;;;2.10;99.90;;;;;;5073586;28;20021;-61
2023/01/23 03:22:12;;;;;;;52.00;23.27;;;2.10;99.90;;;;;;5072722;28;20025;-62
2023/01/23 03:24:38;;;;;;;58.72;22.52;;;2.10;99.90;;;;;;5073020;28;20535;-61
2023/01/23 03:27:03;;;;;;;56.47;22.95;;;2.10;99.90;;;;;;5072943;28;20046;-63
2023/01/23 03:32:14;;;;;;;55.70;23.25;;;2.10;99.90;;;;;;5057170;28;20158;-63
2023/01/23 03:34:41;;;;;;;54.88;23.80;;;2.00;99.90;;;;;;5072946;28;20055;-61
2023/01/23 03:37:08;;;;;;;53.42;22.35;;;2.00;99.90;;;;;;5073060;28;20078;-61
2023/01/23 03:42:18;;;;;;;51.88;22.52;;;2.00;99.90;;;;;;5054172;28;20167;-60
2023/01/23 03:44:43;;;;;;;61.08;24.17;;;2.00;99.90;;;;;;5073137;28;20543;-61
2023/01/23 03:47:09;;;;;;;50.70;22.13;;;2.10;99.90;;;;;;5072207;28;20399;-62
2023/01/23 03:49:35;;;;;;;57.38;23.27;;;2.10;99.90;;;;;;5068462;28;20067;-62
2023/01/23 03:52:00;;;;;;;52.25;23.95;;;2.10;99.90;;;;;;5072707;28;20481;-57
2023/01/23 03:54:26;;;;;;;52.42;23.55;;;2.00;99.90;;;;;;5072059;28;20067;-62
2023/01/23 03:56:52;;;;;;;55.13;24.42;;;2.40;99.90;;;;;;5073017;28;20024;-63
2023/01/23 03:59:18;;;;;;;56.78;23.63;;;2.00;99.90;;;;;;5072543;28;20024;-62
2023/01/23 04:01:44;;;;;;;56.13;22.63;;;2.00;99.90;;;;;;5072943;28;20066;-62
2023/01/23 04:04:09;;;;;;;52.60;22.88;;;2.00;99.90;;;;;;5071269;28;20073;-61
2023/01/23 04:06:35;;;;;;;53.00;23.10;;;2.10;99.90;;;;;;5072491;28;20412;-62
2023/01/23 04:09:01;;;;;;;52.35;24.48;;;1.80;99.90;;;;;;5072549;28;20029;-62
2023/01/23 04:11:27;;;;;;;48.83;21.98;;;2.00;99.90;;;;;;5072625;28;20111;-62
2023/01/23 04:13:53;;;;;;;54.95;22.92;;;2.10;99.90;;;;;;5071374;28;20016;-60
2023/01/23 04:16:21;;;;;;;63.45;24.67;;;2.10;99.90;;;;;;5072278;28;20029;-60
2023/01/23 04:18:48;;;;;;;51.10;22.80;;;2.10;99.90;;;;;;5071313;28;20111;-61
2023/01/23 04:21:13;;;;;;;63.30;24.55;;;2.10;99.90;;;;;;5072125;28;20496;-62
2023/01/23 04:23:39;;;;;;;59.05;24.65;;;2.30;99.90;;;;;;5071360;28;20054;-57
2023/01/23 04:26:04;;;;;;;60.67;24.20;;;2.00;99.90;;;;;;5071763;28;20036;-60
2023/01/23 04:28:30;;;;;;;58.22;22.92;;;2.10;99.90;;;;;;5072241;28;20032;-61
2023/01/23 04:30:56;;;;;;;51.05;23.33;;;2.10;99.90;;;;;;5072029;28;20025;-61
2023/01/23 04:33:21;;;;;;;59.13;24.50;;;2.10;99.90;;;;;;5071006;28;20319;-62
2023/01/23 04:35:56;;;;;;;58.72;24.23;;;2.00;99.90;;;;;;5071920;28;20064;-62
2023/01/23 04:38:24;;;;;;;57.58;22.30;;;2.00;99.90;;;;;;5071509;28;20038;-63
2023/01/23 04:40:50;;;;;;;61.45;25.38;;;2.20;99.90;;;;;;5072223;28;20027;-62
2023/01/23 04:43:16;;;;;;;51.42;24.58;;;2.10;99.90;;;;;;5070844;28;20025;-58
2023/01/23 04:45:42;;;;;;;54.50;22.73;;;2.10;99.90;;;;;;5071718;28;20027;-59
2023/01/23 04:48:09;;;;;;;54.00;23.40;;;2.00;99.90;;;;;;5070869;28;20029;-60
2023/01/23 04:50:35;;;;;;;60.53;23.73;;;2.50;99.90;;;;;;5071941;28;20396;-61
2023/01/23 04:53:01;;;;;;;55.58;24.27;;;2.00;99.90;;;;;;5069946;28;20028;-62
2023/01/23 04:55:27;;;;;;;58.97;24.52;;;2.10;99.90;;;;;;5070759;28;20052;-60
2023/01/23 04:57:53;;;;;;;51.67;24.02;;;2.10;99.90;;;;;;5061899;28;20041;-58
2023/01/23 05:00:20;;;;;;;52.10;22.02;;;2.00;99.90;;;;;;5063772;28;20535;-60
2023/01/23 05:02:47;;;;;;;58.35;24.27;;;2.10;99.90;;;;;;5048636;28;20777;-62
2023/01/23 05:05:13;;;;;;;49.17;24.30;;;2.00;99.90;;;;;;5067341;28;20415;-58
2023/01/23 05:07:39;;;;;;;54.45;25.17;;;2.30;99.90;;;;;;5067512;28;20065;-61
2023/01/23 05:10:05;;;;;;;49.72;23.52;;;2.10;99.90;;;;;;5065315;28;20032;-61
2023/01/23 05:12:31;;;;;;;54.08;23.77;;;2.10;99.90;;;;;;5065812;28;20040;-60
2023/01/23 05:14:57;;;;;;;48.10;22.33;;;2.10;99.90;;;;;;5065569;28;20032;-61
2023/01/23 05:17:22;;;;;;;67.22;25.55;;;2.10;99.90;;;;;;5064960;28;20016;-56
2023/01/23 05:19:48;;;;;;;64.90;25.73;;;2.20;99.90;;;;;;5066344;28;20191;-61
2023/01/23 05:22:13;;;;;;;59.50;24.38;;;2.10;99.90;;;;;;5064986;28;20054;-59
2023/01/23 05:24:39;;;;;;;55.55;23.10;;;2.10;99.90;;;;;;5065047;28;20039;-62
2023/01/23 05:27:05;;;;;;;49.30;24.23;;;2.10;99.90;;;;;;5065445;28;20032;-62
2023/01/23 05:29:30;;;;;;;58.75;24.20;;;2.10;99.90;;;;;;5061794;28;20487;-61
2023/01/23 05:31:56;;;;;;;63.47;25.92;;;2.10;99.90;;;;;;5065332;28;20503;-60
2023/01/23 05:34:21;;;;;;;57.38;24.15;;;2.10;99.90;;;;;;5064595;28;20554;-61
2023/01/23 05:36:47;;;;;;;62.65;25.63;;;2.10;99.90;;;;;;5065361;28;20021;-56
2023/01/23 05:39:12;;;;;;;57.38;24.35;;;2.10;99.90;;;;;;5066494;28;20032;-62
2023/01/23 05:41:38;;;;;;;63.38;26.85;;;2.10;99.90;;;;;;5067881;28;20028;-60
2023/01/23 05:44:04;;;;;;;61.72;25.67;;;2.20;99.90;;;;;;5073873;28;20047;-58
2023/01/23 05:46:30;;;;;;;76.35;29.17;;;2.10;99.90;;;;;;5066158;28;20063;-56
2023/01/23 05:48:55;;;;;;;62.20;25.02;;;1.70;99.90;;;;;;5065218;28;20021;-60
2023/01/23 05:51:22;;;;;;;60.47;24.65;;;2.10;99.90;;;;;;5065568;28;20028;-59
2023/01/23 05:53:48;;;;;;;61.20;25.90;;;2.10;99.90;;;;;;5064807;28;20021;-63
2023/01/23 05:56:15;;;;;;;63.22;26.10;;;2.10;99.90;;;;;;5046078;28;20099;-62
2023/01/23 05:58:40;;;;;;;64.53;26.55;;;2.10;99.90;;;;;;5065504;28;20031;-60
2023/01/23 06:01:06;;;;;;;56.33;23.85;;;2.10;99.90;;;;;;5065727;28;20033;-59
2023/01/23 06:03:32;;;;;;;66.03;27.13;;;2.10;99.90;;;;;;5064281;28;20103;-60
2023/01/23 06:06:00;;;;;;;63.22;24.70;;;2.10;99.90;;;;;;5065261;28;20024;-60
2023/01/23 06:08:26;;;;;;;61.00;26.77;;;2.10;99.90;;;;;;5065811;28;20009;-57
2023/01/23 06:10:52;;;;;;;67.95;26.02;;;2.40;99.90;;;;;;5064727;28;20055;-59
2023/01/23 06:13:17;;;;;;;66.32;27.00;;;2.30;99.90;;;;;;5064966;28;20111;-60
2023/01/23 06:15:43;;;;;;;57.90;24.40;;;2.10;99.90;;;;;;5063816;28;20450;-56
2023/01/23 06:18:08;;;;;;;62.22;25.85;;;2.10;99.90;;;;;;5064679;28;20025;-58
2023/01/23 06:20:34;;;;;;;67.10;28.33;;;2.10;99.90;;;;;;5065375;28;20016;-57
2023/01/23 06:23:00;;;;;;;64.85;26.63;;;2.10;99.90;;;;;;5063860;28;20029;-58
2023/01/23 06:25:25;;;;;;;66.70;26.23;;;2.50;99.90;;;;;;5065130;28;20033;-59
2023/01/23 06:27:51;;;;;;;64.85;26.40;;;2.10;99.90;;;;;;5065149;28;20375;-60
2023/01/23 06:30:17;;;;;;;63.72;27.73;;;2.10;99.90;;;;;;5063393;28;20149;-61
2023/01/23 06:32:42;;;;;;;60.83;25.52;;;2.10;99.90;;;;;;5063513;28;20055;-59
2023/01/23 06:35:08;;;;;;;58.58;26.55;;;2.10;99.90;;;;;;5064616;28;20032;-59
2023/01/23 06:37:34;;;;;;;63.20;26.58;;;2.10;99.90;;;;;;5064517;28;20577;-58
2023/01/23 06:39:59;;;;;;;65.22;27.17;;;2.10;99.90;;;;;;5063918;28;20029;-61
2023/01/23 06:42:25;;;;;;;62.58;26.02;;;2.10;99.90;;;;;;5057627;28;20028;-55
2023/01/23 06:44:51;;;;;;;66.40;26.85;;;2.10;99.90;;;;;;5063978;28;20100;-60
2023/01/23 06:47:18;;;;;;;62.70;26.15;;;2.10;99.90;;;;;;5064241;28;20028;-61
2023/01/23 06:49:43;;;;;;;59.83;26.52;;;2.10;99.90;;;;;;5063469;28;20033;-62
2023/01/23 06:52:09;;;;;;;67.43;27.25;;;2.20;99.90;;;;;;5063456;28;20339;-56
2023/01/23 06:54:35;;;;;;;58.45;25.52;;;2.10;99.90;;;;;;5063884;28;20528;-62
2023/01/23 06:57:00;;;;;;;64.57;25.17;;;2.10;99.90;;;;;;5063195;28;20067;-61
2023/01/23 06:59:26;;;;;;;64.22;26.65;;;2.40;99.90;;;;;;5064807;28;20025;-56
2023/01/23 07:01:51;;;;;;;56.22;25.00;;;2.10;99.90;;;;;;5056875;28;20211;-58
2023/01/23 07:04:17;;;;;;;49.40;22.70;;;2.20;99.90;;;;;;5063851;28;20056;-59
2023/01/23 07:06:43;;;;;;;60.42;24.30;;;2.20;99.90;;;;;;5066302;28;20161;-61
2023/01/23 07:09:09;;;;;;;56.80;26.00;;;2.50;99.90;;;;;;5067362;28;20036;-64
2023/01/23 07:11:36;;;;;;;56.92;25.33;;;2.50;99.90;;;;;;5067853;28;20024;-67
2023/01/23 07:14:01;;;;;;;54.78;24.92;;;2.50;99.90;;;;;;5066398;28;20131;-63
2023/01/23 07:16:27;;;;;;;57.25;25.50;;;2.50;99.90;;;;;;5066242;28;20115;-62
2023/01/23 07:18:53;;;;;;;51.03;21.92;;;2.40;99.90;;;;;;5067868;28;20056;-63
2023/01/23 07:21:19;;;;;;;55.75;24.60;;;2.30;99.90;;;;;;5065587;28;20464;-62
2023/01/23 07:23:44;;;;;;;53.70;25.55;;;2.30;99.90;;;;;;5066959;28;20387;-61
2023/01/23 07:26:11;;;;;;;61.78;26.27;;;2.30;99.90;;;;;;5067391;28;20032;-61
2023/01/23 07:28:37;;;;;;;66.13;26.95;;;2.30;99.90;;;;;;5067005;28;20033;-60
2023/01/23 07:31:04;;;;;;;61.33;26.02;;;2.30;99.90;;;;;;5066870;28;20035;-60
2023/01/23 07:33:29;;;;;;;59.90;24.73;;;2.30;99.90;;;;;;5065063;28;20029;-57
2023/01/23 07:35:55;;;;;;;63.22;27.27;;;2.30;99.90;;;;;;5066487;28;20442;-61
2023/01/23 07:38:24;;;;;;;64.82;27.67;;;2.30;99.90;;;;;;5066424;28;20036;-61
2023/01/23 07:40:51;;;;;;;59.97;25.58;;;2.20;99.90;;;;;;5057150;28;20438;-63
2023/01/23 07:43:17;;;;;;;51.40;25.60;;;2.20;99.90;;;;;;5066717;28;20024;-61
2023/01/23 07:45:43;;;;;;;52.97;24.40;;;2.10;99.90;;;;;;5065682;28;20093;-63
2023/01/23 07:48:09;;;;;;;58.60;24.73;;;2.60;99.90;;;;;;5066214;28;20485;-63
2023/01/23 07:50:36;;;;;;;67.47;27.10;;;3.40;99.90;;;;;;5049659;28;20100;-64
2023/01/23 07:53:04;;;;;;;57.83;25.35;;;2.10;99.90;;;;;;5064916;28;20028;-61
2023/01/23 07:55:29;;;;;;;63.40;25.52;;;2.10;99.90;;;;;;5065182;28;20016;-57
2023/01/23 07:57:55;;;;;;;54.63;25.60;;;2.10;99.90;;;;;;5070760;28;20020;-55
2023/01/23 08:00:22;;;;;;;55.13;24.65;;;2.10;99.90;;;;;;5069478;28;20105;-62
2023/01/23 08:02:48;;;;;;;61.60;28.55;;;2.10;99.90;;;;;;5052595;28;20051;-54
2023/01/23 08:05:13;;;;;;;55.20;24.13;;;2.10;99.90;;;;;;5072001;28;20028;-64
2023/01/23 08:07:39;;;;;;;61.95;25.00;;;2.20;99.90;;;;;;5071580;28;20032;-64
2023/01/23 08:10:06;;;;;;;60.15;25.40;;;2.20;99.90;;;;;;5071311;28;20151;-63
2023/01/23 08:23:30;;;;;;;60.70;26.73;;;2.30;99.90;;;;;;5086623;27;20915;-60
2023/01/23 08:25:59;;;;;;;54.55;26.80;;;2.50;99.90;;;;;;5073873;28;20502;-59
2023/01/23 08:28:25;;;;;;;51.58;25.30;;;2.50;99.90;;;;;;5062288;28;20081;-59
2023/01/23 08:30:51;;;;;;;50.85;25.08;;;2.50;99.90;;;;;;5078493;28;20047;-61
2023/01/23 08:33:17;;;;;;;53.35;25.20;;;2.50;99.90;;;;;;5075035;28;20432;-59
2023/01/23 08:35:50;;;;;;;56.92;25.70;;;2.50;99.90;;;;;;5063160;22;20077;-64
2023/01/23 08:38:17;;;;;;;54.25;25.05;;;2.50;99.90;;;;;;5005702;28;20029;-64
2023/01/23 08:40:44;;;;;;;61.42;25.98;;;2.50;99.90;;;;;;5000890;28;20022;-66
2023/01/23 08:43:13;;;;;;;66.72;26.98;;;2.50;99.90;;;;;;5001760;28;20022;-64
2023/01/23 08:45:39;;;;;;;58.92;26.33;;;2.50;99.90;;;;;;5004211;28;20041;-66
2023/01/23 08:48:06;;;;;;;60.58;26.38;;;2.60;99.90;;;;;;4999845;28;20409;-66
2023/01/23 08:50:32;;;;;;;72.88;27.20;;;2.60;99.90;;;;;;4994972;28;20030;-61
2023/01/23 08:52:57;;;;;;;59.50;25.35;;;2.60;99.90;;;;;;5000676;28;20029;-64
2023/01/23 08:55:23;;;;;;;64.22;26.70;;;2.70;99.90;;;;;;4977471;28;20030;-66
2023/01/23 08:57:49;;;;;;;62.25;27.85;;;2.70;99.90;;;;;;4998815;28;20050;-67
2023/01/23 09:00:15;;;;;;;52.00;25.23;;;2.70;99.90;;;;;;4999784;28;20351;-62
2023/01/23 09:02:41;;;;;;;60.40;24.77;;;2.70;99.90;;;;;;4992383;28;20022;-63
2023/01/23 09:05:07;;;;;;;66.65;26.80;;;2.70;99.90;;;;;;4999935;28;20027;-64
2023/01/23 09:07:35;;;;;;;63.42;27.58;;;2.60;99.90;;;;;;4974552;28;20034;-62
2023/01/23 09:10:01;;;;;;;52.47;23.70;;;2.70;99.90;;;;;;4999644;28;20062;-66
2023/01/23 09:12:27;;;;;;;62.97;26.70;;;2.70;99.90;;;;;;4993767;28;20068;-64
2023/01/23 09:14:53;;;;;;;60.88;25.67;;;2.70;99.90;;;;;;5002106;28;20070;-64
2023/01/23 09:17:19;;;;;;;60.55;26.17;;;2.80;99.90;;;;;;5001572;28;20058;-65
2023/01/23 09:19:45;;;;;;;56.92;25.13;;;2.80;99.90;;;;;;4992302;28;20050;-66
2023/01/23 09:22:10;;;;;;;69.95;26.77;;;2.70;99.90;;;;;;4994364;28;20375;-62
2023/01/23 09:24:36;;;;;;;60.13;25.90;;;2.70;99.90;;;;;;4984756;28;20417;-64
2023/01/23 09:27:02;;;;;;;51.78;23.67;;;2.80;99.90;;;;;;4982648;28;20454;-63
2023/01/23 09:29:28;;;;;;;66.68;27.13;;;4.00;99.90;;;;;;4995722;28;20023;-64
2023/01/23 09:31:53;;;;;;;59.25;25.77;;;2.80;99.90;;;;;;4983188;28;20128;-67
2023/01/23 09:34:19;;;;;;;74.35;29.23;;;2.80;99.90;;;;;;4983717;28;20023;-65
2023/01/23 09:36:45;;;;;;;64.10;26.02;;;2.80;99.90;;;;;;4988163;28;20034;-66
2023/01/23 09:39:11;;;;;;;53.75;23.88;;;2.90;99.90;;;;;;4976030;28;20023;-65
2023/01/23 09:41:38;;;;;;;56.10;25.50;;;2.80;99.90;;;;;;4982463;28;20490;-63
2023/01/23 09:44:13;;;;;;;70.43;28.48;;;2.80;99.90;;;;;;4984418;28;20030;-63
2023/01/23 09:46:56;;;;;;;57.88;26.13;;;2.90;99.90;;;;;;4985121;28;20027;-62
2023/01/23 09:49:52;;;;;;;58.67;25.58;;;2.90;99.90;;;;;;4987969;28;20512;-62
2023/01/23 09:52:23;;;;;;;53.42;24.83;;;2.90;99.90;;;;;;4985689;28;20050;-65
2023/01/23 09:54:52;;;;;;;55.70;25.00;;;3.00;99.90;;;;;;4984896;28;20054;-64
2023/01/23 09:57:23;;;;;;;55.10;25.23;;;3.00;99.90;;;;;;4985281;28;20027;-63
2023/01/23 10:00:14;;;;;;;56.20;24.80;;;2.80;99.90;;;;;;4981852;28;20564;-65
2023/01/23 10:02:43;;;;;;;51.70;24.20;;;3.10;99.90;;;;;;4980163;28;20731;-63
2023/01/23 10:05:14;;;;;;;56.13;24.25;;;3.30;99.90;;;;;;4982913;28;20023;-62
2023/01/23 10:08:09;;;;;;;56.90;25.23;;;3.10;99.90;;;;;;4986277;28;20117;-63
2023/01/23 10:10:56;;;;;;;46.43;23.20;;;3.00;99.90;;;;;;4982670;28;20393;-62
2023/01/23 10:13:39;;;;;;;50.58;23.95;;;3.00;99.90;;;;;;4981515;28;20424;-61
2023/01/23 10:16:42;;;;;;;65.75;29.52;;;3.00;99.90;;;;;;4984755;28;20022;-63
2023/01/23 10:19:26;;;;;;;55.17;26.75;;;3.00;99.90;;;;;;4986294;28;20454;-61
2023/01/23 10:22:02;;;;;;;56.15;24.85;;;3.10;99.90;;;;;;4984135;28;20055;-64
2023/01/23 10:24:48;;;;;;;51.70;24.83;;;3.10;99.90;;;;;;4983921;28;20492;-64
2023/01/23 10:27:23;;;;;;;58.90;25.67;;;3.10;99.90;;;;;;4991709;28;20041;-65
2023/01/23 10:29:56;;;;;;;51.45;24.30;;;3.10;99.90;;;;;;4974176;28;20122;-61
2023/01/23 10:32:30;;;;;;;63.55;26.05;;;3.10;99.90;;;;;;4971277;28;20081;-65
2023/01/23 10:35:06;;;;;;;57.83;25.42;;;3.10;99.90;;;;;;4977617;28;20041;-62
2023/01/23 10:37:36;;;;;;;54.67;25.10;;;3.10;99.90;;;;;;4982259;28;20026;-63
2023/01/23 10:40:15;;;;;;;60.05;25.45;;;3.10;99.90;;;;;;4983570;28;20382;-61
2023/01/23 10:42:41;;;;;;;57.90;26.75;;;3.20;99.90;;;;;;4982355;28;20038;-65
2023/01/23 10:45:18;;;;;;;46.30;23.73;;;3.20;99.90;;;;;;4986473;28;20023;-61
2023/01/23 10:47:46;;;;;;;53.92;24.33;;;3.20;99.90;;;;;;4977080;28;20038;-61
2023/01/23 10:50:12;;;;;;;61.25;26.98;;;4.80;99.90;;;;;;4984286;28;20506;-61
2023/01/23 10:52:41;;;;;;;48.15;24.90;;;3.20;99.90;;;;;;4986189;28;20123;-66
2023/01/23 10:55:29;;;;;;;59.30;24.80;;;3.20;99.90;;;;;;4983389;28;20034;-65
2023/01/23 10:57:58;;;;;;;61.65;27.05;;;3.30;99.90;;;;;;4992554;28;20038;-64
2023/01/23 11:00:27;;;;;;;53.42;25.38;;;3.30;99.90;;;;;;4990755;28;20029;-62
2023/01/23 11:02:52;;;;;;;57.20;25.75;;;3.30;99.90;;;;;;4984744;28;20425;-63
2023/01/23 11:05:38;;;;;;;57.08;25.42;;;3.30;99.90;;;;;;4971838;28;20026;-65
2023/01/23 11:08:31;;;;;;;59.13;25.90;;;3.30;99.90;;;;;;4979928;28;20034;-66
2023/01/23 11:11:15;;;;;;;55.70;26.65;;;3.30;99.90;;;;;;4993347;28;20039;-65
2023/01/23 11:13:43;;;;;;;68.45;27.08;;;3.20;99.90;;;;;;4994134;28;20026;-66
2023/01/23 11:16:22;;;;;;;58.22;25.52;;;3.20;99.90;;;;;;4992967;28;20172;-65
2023/01/23 11:19:06;;;;;;;54.85;26.02;;;3.20;99.90;;;;;;4995530;28;20112;-65
2023/01/23 11:21:35;;;;;;;61.07;25.17;;;3.70;99.90;;;;;;4994705;28;20042;-60
2023/01/23 11:24:18;;;;;;;63.50;27.75;;;3.30;99.90;;;;;;4993057;28;20053;-62
2023/01/23 11:26:44;;;;;;;56.10;25.85;;;3.30;99.90;;;;;;4994565;28;20033;-67
2023/01/23 11:29:24;;;;;;;60.95;26.75;;;3.10;99.90;;;;;;4988736;28;20038;-64
2023/01/23 11:31:56;;;;;;;59.10;26.20;;;3.00;99.90;;;;;;4977207;28;20129;-62
2023/01/23 11:34:26;;;;;;;70.50;26.02;;;3.00;99.90;;;;;;4988836;28;20049;-64
2023/01/23 11:37:10;;;;;;;59.58;25.05;;;3.00;99.90;;;;;;4983449;28;20406;-64
2023/01/23 11:39:58;;;;;;;62.92;26.42;;;3.00;99.90;;;;;;4988014;28;20508;-64
2023/01/23 11:42:26;;;;;;;67.40;27.63;;;3.00;99.90;;;;;;4982821;28;20272;-64
2023/01/23 11:44:52;;;;;;;52.95;23.75;;;3.00;99.90;;;;;;4987765;28;20049;-62
2023/01/23 11:47:53;;;;;;;58.72;27.00;;;3.00;99.90;;;;;;4975261;28;20343;-65
2023/01/23 11:50:19;;;;;;;65.43;26.42;;;3.00;99.90;;;;;;4978043;28;20035;-68
2023/01/23 11:53:00;;;;;;;61.33;26.08;;;3.00;99.90;;;;;;4985977;28;20037;-62
2023/01/23 11:55:56;;;;;;;59.42;27.70;;;3.30;99.90;;;;;;4987349;28;20027;-65
2023/01/23 11:58:25;;;;;;;48.33;24.35;;;3.10;99.90;;;;;;4983376;28;20119;-64
2023/01/23 12:01:05;;;;;;;71.40;27.33;;;3.00;99.90;;;;;;4987168;28;20109;-66
2023/01/23 12:04:03;;;;;;;52.25;25.42;;;2.90;99.90;;;;;;4985727;28;20030;-70
2023/01/23 12:06:29;;;;;;;65.13;27.08;;;3.00;99.90;;;;;;4978806;28;20110;-66
2023/01/23 12:09:08;;;;;;;56.28;25.55;;;3.00;99.90;;;;;;4981075;28;20129;-66
2023/01/23 12:12:03;;;;;;;54.22;24.95;;;3.20;99.90;;;;;;4986835;28;20019;-66
2023/01/23 12:14:28;;;;;;;58.95;24.05;;;3.10;99.90;;;;;;4962247;28;20047;-66
2023/01/23 12:17:12;;;;;;;47.45;23.73;;;3.10;99.90;;;;;;4978329;28;20087;-60
2023/01/23 12:19:46;;;;;;;56.77;25.53;;;3.10;99.90;;;;;;4976678;28;20035;-66
2023/01/23 12:22:26;;;;;;;51.03;23.25;;;3.10;99.90;;;;;;4981046;28;20023;-65
2023/01/23 12:25:10;;;;;;;50.80;23.17;;;3.20;99.90;;;;;;4983674;28;20073;-63
2023/01/23 12:27:43;;;;;;;44.23;22.50;;;3.20;99.90;;;;;;4977304;28;20086;-66
2023/01/23 12:30:30;;;;;;;61.83;25.52;;;3.30;99.90;;;;;;4979821;28;20314;-67
2023/01/23 12:33:08;;;;;;;44.85;20.30;;;3.30;99.90;;;;;;4974251;28;20058;-65
2023/01/23 12:36:05;;;;;;;51.55;21.85;;;3.40;99.90;;;;;;4974995;28;20034;-66
2023/01/23 12:38:55;;;;;;;41.75;22.05;;;3.40;99.90;;;;;;4955786;28;20070;-63
2023/01/23 12:41:20;;;;;;;43.72;20.73;;;3.30;99.90;;;;;;4974077;28;20042;-64
2023/01/23 12:44:03;;;;;;;39.38;20.38;;;3.30;99.90;;;;;;4982268;28;20027;-63
2023/01/23 12:46:39;;;;;;;35.30;19.88;;;3.30;99.90;;;;;;4972961;28;20057;-66
2023/01/23 12:49:32;;;;;;;41.65;20.95;;;3.30;99.90;;;;;;4980293;28;20026;-66
2023/01/23 12:52:00;;;;;;;35.72;19.20;;;3.30;99.90;;;;;;4978464;28;20149;-67
2023/01/23 12:54:38;;;;;;;42.92;19.00;;;3.40;99.90;;;;;;4971860;28;20101;-66
2023/01/23 12:57:07;;;;;;;33.95;18.40;;;3.40;99.90;;;;;;4983497;28;20068;-66
2023/01/23 12:59:57;;;;;;;36.15;17.75;;;3.40;99.90;;;;;;4989021;28;20050;-65
2023/01/23 13:02:55;;;;;;;41.00;17.20;;;3.30;99.90;;;;;;4988330;28;20037;-66
2023/01/23 13:05:27;;;;;;;27.60;15.52;;;3.40;99.90;;;;;;4991667;28;20034;-67